Terminal Aerodrome Forecast
Issued by NWS Salt Lake City, UT

Home | Current Version | Previous Version | Text Only | Print | Product List | Glossary On
Versions: 1 2 3 4 5 6 7 8 9 10 11 12 13 14 15 16 17 18 19 20 21 22 23 24
527
FTUS45 KSLC 211120
TAFCDC
TAF
KCDC 211120Z 2112/2212 26009KT P6SM SCT090
     FM211800 24008KT P6SM VCSH BKN050 OVC080
     FM212200 01007KT P6SM -RA SCT030 OVC045
     FM220400 02005KT P6SM -SHRA SCT040 BKN060
     FM220700 11005KT P6SM SCT045 BKN090=

USA.gov is the U.S. government's official web portal to all federal, state and local government web resources and services.